createdAt,value
2019-03-19T00:00:54.870Z,15.00
2019-03-19T00:03:24.019Z,12.13
2019-03-19T00:05:53.262Z,11.75
2019-03-19T00:08:22.511Z,13.15
2019-03-19T00:10:52.048Z,12.60
2019-03-19T00:13:21.621Z,12.63
2019-03-19T00:15:51.609Z,8.63
2019-03-19T00:18:20.979Z,11.30
2019-03-19T00:20:50.991Z,12.93
2019-03-19T00:23:20.705Z,11.10
2019-03-19T00:25:52.947Z,9.75
2019-03-19T00:28:21.695Z,8.98
2019-03-19T00:30:51.118Z,10.20
2019-03-19T00:33:21.005Z,8.55
2019-03-19T00:35:51.725Z,10.18
2019-03-19T00:38:22.152Z,11.63
2019-03-19T00:40:51.539Z,9.55
2019-03-19T00:43:21.737Z,9.85
2019-03-19T00:45:51.538Z,10.30
2019-03-19T00:48:21.236Z,11.57
2019-03-19T00:50:50.989Z,8.95
2019-03-19T00:53:21.431Z,9.93
2019-03-19T00:55:52.034Z,8.40
2019-03-19T00:58:21.881Z,7.92
2019-03-19T01:00:51.670Z,8.98
2019-03-19T01:03:21.368Z,7.83
2019-03-19T01:05:51.086Z,8.15
2019-03-19T01:08:20.703Z,7.97
2019-03-19T01:10:50.921Z,8.40
2019-03-19T01:13:20.822Z,9.30
2019-03-19T01:15:50.699Z,8.40
2019-03-19T01:18:20.562Z,9.33
2019-03-19T01:20:50.963Z,9.13
2019-03-19T01:23:21.286Z,8.13
2019-03-19T01:25:55.499Z,8.70
2019-03-19T01:28:21.483Z,7.92
2019-03-19T01:30:50.670Z,8.83
2019-03-19T01:33:19.995Z,6.00
2019-03-19T01:35:49.132Z,8.68
2019-03-19T01:38:20.113Z,7.17
2019-03-19T01:40:50.427Z,9.28
2019-03-19T01:43:20.645Z,8.65
2019-03-19T01:45:50.939Z,9.25
2019-03-19T01:48:21.025Z,8.30
2019-03-19T01:50:50.342Z,9.05
2019-03-19T01:53:19.473Z,7.95
2019-03-19T01:55:50.747Z,7.60
2019-03-19T01:58:21.010Z,8.45
2019-03-19T02:00:51.525Z,9.93
2019-03-19T02:03:21.190Z,8.98
2019-03-19T02:05:50.752Z,9.30
2019-03-19T02:08:20.623Z,7.92
2019-03-19T02:10:50.862Z,9.90
2019-03-19T02:13:20.504Z,8.55
2019-03-19T02:15:50.632Z,8.55
2019-03-19T02:18:20.796Z,9.70
2019-03-19T02:20:50.702Z,7.62
2019-03-19T02:23:20.667Z,9.53
2019-03-19T02:25:50.371Z,8.10
2019-03-19T02:28:20.174Z,7.53
2019-03-19T02:30:50.548Z,5.42
2019-03-19T02:33:22.777Z,5.22
2019-03-19T02:35:52.017Z,5.72
2019-03-19T02:38:21.520Z,6.33
2019-03-19T02:40:51.251Z,4.62
2019-03-19T02:43:22.810Z,5.40
2019-03-19T02:45:52.095Z,4.62
2019-03-19T02:48:21.297Z,4.95
2019-03-19T02:50:51.291Z,5.87
2019-03-19T02:53:20.952Z,5.45
2019-03-19T02:55:50.789Z,5.00
2019-03-19T02:58:20.617Z,4.53
2019-03-19T03:00:51.141Z,4.70
2019-03-19T03:03:21.009Z,4.70
2019-03-19T03:05:51.102Z,7.10
2019-03-19T03:08:20.921Z,9.65
2019-03-19T03:10:50.964Z,9.58
2019-03-19T03:13:21.199Z,10.23
2019-03-19T03:15:51.209Z,9.50
2019-03-19T03:18:20.384Z,10.40
2019-03-19T03:20:49.533Z,9.80
2019-03-19T03:23:18.876Z,8.45
2019-03-19T03:25:48.151Z,7.20
2019-03-19T03:28:17.317Z,7.85
2019-03-19T03:30:48.768Z,8.05
2019-03-19T03:33:17.952Z,6.87
2019-03-19T03:35:47.097Z,4.75
2019-03-19T03:38:17.926Z,6.25
2019-03-19T03:40:49.673Z,5.83
2019-03-19T03:43:20.126Z,5.17
2019-03-19T03:45:50.034Z,4.85
2019-03-19T03:48:19.235Z,4.80
2019-03-19T03:50:48.395Z,4.17
2019-03-19T03:53:17.524Z,4.37
2019-03-19T03:55:48.264Z,4.00
2019-03-19T03:58:18.489Z,4.78
2019-03-19T04:00:49.051Z,4.00
2019-03-19T04:03:20.482Z,4.87
2019-03-19T04:05:53.879Z,4.83
2019-03-19T04:08:23.196Z,4.33
2019-03-19T04:10:52.381Z,3.80
2019-03-19T04:13:22.535Z,3.72
2019-03-19T04:15:51.878Z,3.40
2019-03-19T04:18:22.095Z,4.17
2019-03-19T04:20:51.699Z,3.80
2019-03-19T04:23:21.307Z,4.62
2019-03-19T04:25:51.179Z,4.72
2019-03-19T04:28:21.769Z,5.03
2019-03-19T04:30:51.774Z,4.72
2019-03-19T04:33:22.564Z,4.85
2019-03-19T04:35:52.056Z,3.95
2019-03-19T04:38:21.699Z,4.80
2019-03-19T04:40:51.537Z,5.35
2019-03-19T04:43:20.689Z,6.75
2019-03-19T04:45:50.653Z,6.33
2019-03-19T04:48:20.532Z,5.60
2019-03-19T04:50:50.561Z,7.85
2019-03-19T04:53:24.109Z,6.80
2019-03-19T04:55:52.998Z,8.88
2019-03-19T04:58:22.333Z,6.53
2019-03-19T05:00:51.829Z,7.17
2019-03-19T05:03:20.989Z,7.80
2019-03-19T05:05:50.692Z,6.85
2019-03-19T05:08:20.371Z,6.12
2019-03-19T05:10:50.642Z,5.15
2019-03-19T05:13:20.079Z,6.05
2019-03-19T05:15:50.535Z,7.60
2019-03-19T05:18:20.102Z,6.03
2019-03-19T05:20:50.524Z,7.10
2019-03-19T05:23:20.539Z,6.95
2019-03-19T05:25:49.837Z,7.37
2019-03-19T05:28:19.171Z,7.10
2019-03-19T05:30:49.076Z,8.78
2019-03-19T05:33:19.570Z,9.18
2019-03-19T05:35:52.128Z,6.80
2019-03-19T05:38:22.652Z,10.30
2019-03-19T05:40:52.518Z,9.38
2019-03-19T05:43:21.914Z,8.35
2019-03-19T05:45:51.969Z,8.58
2019-03-19T05:48:21.652Z,8.75
2019-03-19T05:50:52.870Z,6.75
2019-03-19T05:53:22.035Z,7.37
2019-03-19T05:55:51.184Z,8.28
2019-03-19T05:58:20.425Z,9.05
2019-03-19T06:00:52.188Z,8.73
2019-03-19T06:03:23.630Z,8.58
2019-03-19T06:05:54.888Z,8.75
2019-03-19T06:08:24.325Z,8.80
2019-03-19T06:10:54.071Z,7.08
2019-03-19T06:13:24.517Z,9.70
2019-03-19T06:15:54.846Z,9.48
2019-03-19T06:18:34.559Z,11.15
2019-03-19T06:20:56.144Z,11.15
2019-03-19T06:23:26.242Z,12.13
2019-03-19T06:25:56.524Z,12.68
2019-03-19T06:28:26.366Z,10.53
2019-03-19T06:30:57.564Z,10.58
2019-03-19T06:33:27.362Z,10.00
2019-03-19T06:35:57.448Z,14.55
2019-03-19T06:38:27.984Z,15.13
2019-03-19T06:40:57.835Z,15.50
2019-03-19T06:43:27.170Z,18.77
2019-03-19T06:45:57.205Z,16.15
2019-03-19T06:48:27.525Z,18.85
2019-03-19T06:50:57.276Z,18.70
2019-03-19T06:53:27.016Z,18.40
2019-03-19T06:55:56.770Z,19.48
2019-03-19T06:58:26.821Z,17.50
2019-03-19T07:00:57.930Z,19.80
2019-03-19T07:03:33.036Z,16.32
2019-03-19T07:06:03.479Z,19.85
2019-03-19T07:08:33.689Z,18.90
2019-03-19T07:11:04.699Z,19.55
2019-03-19T07:13:35.084Z,21.12
2019-03-19T07:16:05.308Z,21.27
2019-03-19T07:18:35.840Z,18.82
2019-03-19T07:21:06.443Z,22.07
2019-03-19T07:23:36.560Z,22.77
2019-03-19T07:26:07.899Z,18.07
2019-03-19T07:28:39.069Z,15.68
2019-03-19T07:31:09.078Z,18.05
2019-03-19T07:33:38.413Z,14.63
2019-03-19T07:36:08.697Z,10.28
2019-03-19T07:38:38.707Z,10.82
2019-03-19T07:41:09.477Z,9.40
2019-03-19T07:43:40.018Z,10.35
2019-03-19T07:46:10.202Z,9.33
2019-03-19T07:48:40.375Z,8.70
2019-03-19T07:51:11.044Z,8.45
2019-03-19T07:53:40.958Z,9.18
2019-03-19T07:56:10.117Z,7.95
2019-03-19T07:58:45.591Z,8.00
2019-03-19T08:01:11.834Z,8.05
2019-03-19T08:03:41.018Z,7.20
2019-03-19T08:06:10.184Z,7.50
2019-03-19T08:08:39.356Z,8.25
2019-03-19T08:11:08.561Z,8.90
2019-03-19T08:13:37.789Z,6.90
2019-03-19T08:16:06.937Z,6.90
2019-03-19T08:18:36.314Z,7.22
2019-03-19T08:21:05.532Z,6.97
2019-03-19T08:23:34.724Z,7.05
2019-03-19T08:26:04.063Z,8.25
2019-03-19T08:28:33.863Z,9.63
2019-03-19T08:31:03.142Z,9.65
2019-03-19T08:33:32.297Z,8.15
2019-03-19T08:36:08.959Z,7.97
2019-03-19T08:38:32.726Z,8.40
2019-03-19T08:41:02.696Z,9.05
2019-03-19T08:43:33.253Z,8.50
2019-03-19T08:46:04.084Z,8.30
2019-03-19T08:48:37.435Z,9.18
2019-03-19T08:51:08.879Z,8.48
2019-03-19T08:53:38.854Z,9.43
2019-03-19T08:56:10.766Z,8.53
2019-03-19T08:58:42.537Z,8.53
2019-03-19T09:01:15.204Z,9.58
2019-03-19T09:03:45.292Z,8.33
2019-03-19T09:06:17.751Z,7.67
2019-03-19T09:08:50.330Z,8.60
2019-03-19T09:11:21.244Z,8.60
2019-03-19T09:13:52.060Z,8.25
2019-03-19T09:16:21.304Z,8.78
2019-03-19T09:18:51.223Z,8.05
2019-03-19T09:21:22.329Z,7.80
2019-03-19T09:23:52.204Z,7.60
2019-03-19T09:26:23.023Z,8.50
2019-03-19T09:28:53.032Z,7.75
2019-03-19T09:31:22.661Z,7.58
2019-03-19T09:33:52.559Z,5.95
2019-03-19T09:36:23.272Z,5.80
2019-03-19T09:38:53.899Z,6.42
2019-03-19T09:41:23.989Z,7.70
2019-03-19T09:43:54.435Z,6.75
2019-03-19T09:46:24.533Z,7.70
2019-03-19T09:48:55.320Z,8.43
2019-03-19T09:51:24.731Z,8.78
2019-03-19T09:53:56.971Z,9.35
2019-03-19T09:56:27.163Z,8.30
2019-03-19T09:58:57.930Z,8.23
2019-03-19T10:01:29.555Z,9.48
2019-03-19T10:03:59.711Z,6.70
2019-03-19T10:06:29.794Z,6.40
2019-03-19T10:09:00.204Z,5.60
2019-03-19T10:11:31.657Z,6.08
2019-03-19T10:14:02.567Z,5.47
2019-03-19T10:16:32.061Z,5.08
2019-03-19T10:19:02.402Z,3.00
2019-03-19T10:21:32.076Z,4.67
2019-03-19T10:24:02.742Z,3.55
2019-03-19T10:26:32.553Z,3.25
2019-03-19T10:29:02.700Z,5.25
2019-03-19T10:31:33.200Z,3.83
2019-03-19T10:34:03.707Z,3.60
2019-03-19T10:36:33.665Z,3.98
2019-03-19T10:39:04.897Z,3.30
2019-03-19T10:41:35.948Z,3.90
2019-03-19T10:44:06.477Z,3.08
2019-03-19T10:46:36.310Z,3.92
2019-03-19T10:49:07.109Z,3.42
2019-03-19T10:51:37.626Z,3.70
2019-03-19T10:54:07.579Z,3.02
2019-03-19T10:56:38.875Z,4.50
2019-03-19T10:59:08.000Z,3.60
2019-03-19T11:01:37.204Z,4.33
2019-03-19T11:04:07.115Z,3.90
2019-03-19T11:06:36.843Z,4.33
2019-03-19T11:09:07.712Z,6.72
2019-03-19T11:11:37.427Z,5.17
2019-03-19T11:14:06.586Z,4.83
2019-03-19T11:16:36.318Z,4.97
2019-03-19T11:19:05.941Z,4.92
2019-03-19T11:21:35.179Z,4.67
2019-03-19T11:24:05.504Z,4.62
2019-03-19T11:26:34.927Z,4.80
2019-03-19T11:29:05.406Z,5.90
2019-03-19T11:31:35.255Z,4.80
2019-03-19T11:34:05.319Z,5.15
2019-03-19T11:36:35.563Z,3.83
2019-03-19T11:39:08.770Z,3.50
2019-03-19T11:41:38.490Z,3.67
2019-03-19T11:44:07.627Z,4.28
2019-03-19T11:46:37.103Z,5.05
2019-03-19T11:49:06.289Z,3.30
2019-03-19T11:51:35.665Z,3.50
2019-03-19T11:54:05.038Z,4.55
2019-03-19T11:56:34.194Z,3.30
2019-03-19T11:59:03.361Z,3.25
2019-03-19T12:01:32.539Z,3.85
2019-03-19T12:04:01.707Z,3.22
2019-03-19T12:06:30.892Z,2.70
2019-03-19T12:09:00.051Z,2.15
2019-03-19T12:11:29.238Z,2.80
2019-03-19T12:13:58.386Z,1.80
2019-03-19T12:16:27.722Z,1.60
2019-03-19T12:18:56.884Z,1.57
2019-03-19T12:21:26.057Z,2.10
2019-03-19T12:23:55.581Z,2.00
2019-03-19T12:26:25.259Z,2.45
2019-03-19T12:28:55.308Z,2.35
2019-03-19T12:31:25.926Z,2.05
2019-03-19T12:33:56.038Z,3.00
2019-03-19T12:36:26.070Z,2.93
2019-03-19T12:38:56.280Z,3.03
2019-03-19T12:41:25.810Z,3.20
2019-03-19T12:43:55.244Z,2.92
2019-03-19T12:46:24.855Z,4.45
2019-03-19T12:48:54.566Z,3.25
2019-03-19T12:51:23.723Z,3.52
2019-03-19T12:53:58.132Z,2.60
2019-03-19T12:56:30.035Z,2.30
2019-03-19T12:59:00.810Z,2.72
2019-03-19T13:01:30.482Z,2.40
2019-03-19T13:04:01.304Z,2.00
2019-03-19T13:06:34.262Z,3.27
2019-03-19T13:09:05.466Z,2.45
2019-03-19T13:11:35.255Z,2.00
2019-03-19T13:14:04.867Z,1.95
2019-03-19T13:16:34.819Z,1.70
2019-03-19T13:19:06.073Z,1.60
2019-03-19T13:21:35.667Z,1.82
2019-03-19T13:24:05.288Z,1.80
2019-03-19T13:26:34.817Z,2.10
2019-03-19T13:29:05.490Z,1.40
2019-03-19T13:31:35.492Z,1.80
2019-03-19T13:34:06.142Z,1.62
2019-03-19T13:36:36.581Z,1.25
2019-03-19T13:39:08.542Z,2.07
2019-03-19T13:41:37.963Z,1.37
2019-03-19T13:44:07.181Z,1.50
2019-03-19T13:46:36.851Z,1.37
2019-03-19T13:49:06.614Z,2.05
2019-03-19T13:51:37.900Z,1.60
2019-03-19T13:54:07.119Z,1.75
2019-03-19T13:56:36.359Z,1.50
2019-03-19T13:59:06.002Z,1.37
2019-03-19T14:01:36.360Z,1.62
2019-03-19T14:04:05.826Z,1.62
2019-03-19T14:06:36.363Z,1.35
2019-03-19T14:09:08.498Z,1.65
2019-03-19T14:11:37.808Z,1.50
2019-03-19T14:14:07.446Z,1.30
2019-03-19T14:16:37.554Z,1.27
2019-03-19T14:19:07.165Z,1.45
2019-03-19T14:21:37.068Z,1.45
2019-03-19T14:24:07.518Z,1.77
2019-03-19T14:26:38.025Z,1.60
2019-03-19T14:29:07.894Z,3.30
2019-03-19T14:31:37.397Z,1.60
2019-03-19T14:34:07.421Z,1.75
2019-03-19T14:36:37.371Z,2.00
2019-03-19T14:39:09.077Z,1.37
2019-03-19T14:41:38.255Z,1.45
2019-03-19T14:44:09.051Z,1.42
2019-03-19T14:46:38.300Z,1.52
2019-03-19T14:49:08.304Z,1.40
2019-03-19T14:51:37.699Z,1.60
2019-03-19T14:54:06.940Z,1.30
2019-03-19T14:56:36.106Z,1.35
2019-03-19T14:59:05.320Z,1.85
2019-03-19T15:01:34.570Z,1.22
2019-03-19T15:04:03.797Z,1.70
2019-03-19T15:06:32.955Z,1.45
2019-03-19T15:09:02.166Z,1.55
2019-03-19T15:11:31.457Z,2.02
2019-03-19T15:14:00.692Z,1.57
2019-03-19T15:16:29.893Z,1.90
2019-03-19T15:18:59.149Z,2.80
2019-03-19T15:21:28.340Z,2.15
2019-03-19T15:23:58.449Z,1.55
2019-03-19T15:26:28.717Z,1.82
2019-03-19T15:28:57.922Z,2.02
2019-03-19T15:31:29.995Z,2.30
2019-03-19T15:33:58.319Z,1.70
2019-03-19T15:36:28.975Z,1.72
2019-03-19T15:38:58.588Z,2.40
2019-03-19T15:41:27.935Z,1.90
2019-03-19T15:43:58.049Z,1.80
2019-03-19T15:46:27.953Z,2.00
2019-03-19T15:48:57.650Z,1.35
2019-03-19T15:51:27.717Z,1.67
2019-03-19T15:54:00.784Z,1.70
2019-03-19T15:56:31.431Z,2.00
2019-03-19T15:59:01.387Z,1.62
2019-03-19T16:01:40.128Z,1.80
2019-03-19T16:04:04.189Z,1.50
2019-03-19T16:06:36.875Z,1.85
2019-03-19T16:09:09.511Z,1.95
2019-03-19T16:11:38.914Z,2.12
2019-03-19T16:14:08.840Z,3.27
2019-03-19T16:16:38.895Z,1.72
2019-03-19T16:19:08.538Z,1.80
2019-03-19T16:21:37.935Z,1.77
2019-03-19T16:24:07.538Z,1.72
2019-03-19T16:26:37.172Z,1.60
2019-03-19T16:29:06.652Z,1.65
2019-03-19T16:31:36.788Z,2.50
2019-03-19T16:34:06.748Z,2.02
2019-03-19T16:36:37.215Z,1.40
2019-03-19T16:39:07.762Z,1.60
2019-03-19T16:41:37.434Z,1.80
2019-03-19T16:44:07.188Z,1.70
2019-03-19T16:46:36.980Z,1.65
2019-03-19T16:49:06.492Z,1.70
2019-03-19T16:51:35.645Z,2.37
2019-03-19T16:54:05.879Z,2.02
2019-03-19T16:56:35.457Z,1.60
2019-03-19T16:59:06.121Z,2.12
2019-03-19T17:01:35.637Z,1.77
2019-03-19T17:04:05.182Z,2.05
2019-03-19T17:06:36.122Z,1.50
2019-03-19T17:09:08.842Z,1.40
2019-03-19T17:11:40.174Z,2.10
2019-03-19T17:14:10.554Z,1.90
2019-03-19T17:16:40.814Z,1.50
2019-03-19T17:19:11.555Z,2.77
2019-03-19T17:21:42.058Z,2.00
2019-03-19T17:24:12.981Z,2.05
2019-03-19T17:26:43.639Z,1.92
2019-03-19T17:29:14.215Z,2.20
2019-03-19T17:31:44.691Z,2.60
2019-03-19T17:34:15.371Z,2.70
2019-03-19T17:36:45.687Z,3.45
2019-03-19T17:39:16.113Z,2.45
2019-03-19T17:41:46.468Z,2.67
2019-03-19T17:44:17.116Z,2.87
2019-03-19T17:46:47.679Z,2.50
2019-03-19T17:49:18.649Z,5.03
2019-03-19T17:51:50.590Z,4.50
2019-03-19T17:54:23.169Z,4.20
2019-03-19T17:56:56.409Z,4.78
2019-03-19T17:59:29.814Z,2.50
2019-03-19T18:02:01.548Z,2.95
2019-03-19T18:04:33.119Z,2.20
2019-03-19T18:07:08.040Z,2.95
2019-03-19T18:09:39.083Z,2.45
2019-03-19T18:12:10.308Z,2.40
2019-03-19T18:14:41.055Z,2.90
2019-03-19T18:17:11.506Z,2.42
2019-03-19T18:19:42.148Z,2.47
2019-03-19T18:22:12.417Z,2.50
2019-03-19T18:24:43.138Z,3.27
2019-03-19T18:27:13.491Z,2.75
2019-03-19T18:29:44.058Z,2.85
2019-03-19T18:32:14.949Z,3.10
2019-03-19T18:34:45.128Z,2.83
2019-03-19T18:37:16.633Z,2.95
2019-03-19T18:39:47.569Z,2.52
2019-03-19T18:42:18.173Z,3.05
2019-03-19T18:44:48.777Z,3.10
2019-03-19T18:47:20.666Z,2.58
2019-03-19T18:49:52.790Z,2.85
2019-03-19T18:52:25.977Z,4.42
2019-03-19T18:54:58.972Z,5.00
2019-03-19T18:57:30.828Z,3.80
2019-03-19T19:00:03.499Z,4.40
2019-03-19T19:02:36.828Z,4.15
2019-03-19T19:05:08.172Z,2.95
2019-03-19T19:07:38.649Z,2.80
2019-03-19T19:10:10.109Z,4.17
2019-03-19T19:12:40.936Z,4.40
2019-03-19T19:15:16.700Z,4.35
2019-03-19T19:17:48.124Z,6.10
2019-03-19T19:20:19.352Z,6.80
2019-03-19T19:22:51.209Z,5.20
2019-03-19T19:25:21.475Z,5.83
2019-03-19T19:27:52.407Z,4.30
2019-03-19T19:30:23.231Z,6.20
2019-03-19T19:33:01.531Z,5.25
2019-03-19T19:35:27.403Z,4.87
2019-03-19T19:37:58.535Z,4.80
2019-03-19T19:40:29.851Z,3.92
2019-03-19T19:43:01.632Z,4.25
2019-03-19T19:45:32.550Z,5.00
2019-03-19T19:48:04.008Z,4.70
2019-03-19T19:50:35.271Z,4.55
2019-03-19T19:53:06.221Z,5.92
2019-03-19T19:55:36.911Z,5.65
2019-03-19T19:58:07.065Z,4.83
2019-03-19T20:00:38.252Z,8.35
2019-03-19T20:03:12.417Z,8.33
2019-03-19T20:05:41.391Z,6.12
2019-03-19T20:08:12.438Z,5.15
2019-03-19T20:10:42.855Z,10.53
2019-03-19T20:13:14.345Z,10.70
2019-03-19T20:15:45.027Z,9.65
2019-03-19T20:18:15.503Z,7.00
2019-03-19T20:20:46.160Z,6.92
2019-03-19T20:23:16.665Z,5.67
2019-03-19T20:25:46.999Z,6.50
2019-03-19T20:28:18.513Z,5.65
2019-03-19T20:30:50.194Z,5.00
2019-03-19T20:33:25.045Z,5.60
2019-03-19T20:35:55.710Z,4.60
2019-03-19T20:38:26.980Z,5.05
2019-03-19T20:40:59.748Z,5.87
2019-03-19T20:43:32.425Z,6.12
2019-03-19T20:46:04.758Z,5.95
2019-03-19T20:48:36.291Z,5.65
2019-03-19T20:51:07.544Z,5.28
2019-03-19T20:53:38.463Z,6.05
2019-03-19T20:56:09.249Z,4.25
2019-03-19T20:58:43.634Z,6.40
2019-03-19T21:01:13.123Z,5.33
2019-03-19T21:03:43.954Z,6.65
2019-03-19T21:06:14.480Z,8.33
2019-03-19T21:08:45.202Z,13.25
2019-03-19T21:11:15.785Z,12.50
2019-03-19T21:13:46.396Z,11.65
2019-03-19T21:16:18.385Z,11.53
2019-03-19T21:18:49.753Z,12.80
2019-03-19T21:21:21.822Z,10.10
2019-03-19T21:23:53.356Z,7.95
2019-03-19T21:26:26.141Z,9.83
2019-03-19T21:28:56.978Z,8.35
2019-03-19T21:31:28.143Z,8.25
2019-03-19T21:34:01.498Z,8.05
2019-03-19T21:36:33.271Z,7.40
2019-03-19T21:39:05.902Z,8.10
2019-03-19T21:41:36.887Z,8.00
2019-03-19T21:44:07.753Z,7.70
2019-03-19T21:46:38.803Z,7.67
2019-03-19T21:49:09.674Z,7.22
2019-03-19T21:51:40.056Z,7.03
2019-03-19T21:54:10.642Z,6.92
2019-03-19T21:56:41.269Z,7.97
2019-03-19T22:02:39.833Z,8.73
2019-03-19T22:05:09.439Z,7.08
2019-03-19T22:07:38.595Z,6.67
2019-03-19T22:10:10.432Z,5.97
2019-03-19T22:12:39.605Z,7.00
2019-03-19T22:15:14.596Z,7.42
2019-03-19T22:17:43.953Z,7.60
2019-03-19T22:20:13.954Z,7.47
2019-03-19T22:22:43.235Z,7.10
2019-03-19T22:25:12.886Z,6.08
2019-03-19T22:27:42.057Z,7.08
2019-03-19T22:30:13.718Z,6.15
2019-03-19T22:32:42.916Z,5.65
2019-03-19T22:35:12.324Z,7.37
2019-03-19T22:37:41.479Z,7.33
2019-03-19T22:40:12.100Z,7.03
2019-03-19T22:42:41.257Z,5.67
2019-03-19T22:45:12.037Z,5.90
2019-03-19T22:47:41.242Z,6.60
2019-03-19T22:50:11.434Z,5.22
2019-03-19T22:52:40.716Z,6.05
2019-03-19T22:55:09.894Z,6.15
2019-03-19T22:57:39.385Z,5.80
2019-03-19T23:00:13.068Z,6.05
2019-03-19T23:02:42.493Z,6.70
2019-03-19T23:05:14.436Z,4.95
2019-03-19T23:07:43.849Z,6.60
2019-03-19T23:10:13.012Z,7.20
2019-03-19T23:12:42.589Z,7.00
2019-03-19T23:15:11.933Z,6.85
2019-03-19T23:17:41.198Z,6.35
2019-03-19T23:20:10.960Z,7.35
2019-03-19T23:22:40.123Z,9.08
2019-03-19T23:25:09.329Z,6.87
2019-03-19T23:27:38.485Z,6.47
2019-03-19T23:30:08.807Z,6.90
2019-03-19T23:32:38.936Z,6.53
2019-03-19T23:35:09.348Z,6.67
2019-03-19T23:37:38.831Z,7.20
2019-03-19T23:40:08.495Z,7.22
2019-03-19T23:42:38.650Z,7.08
2019-03-19T23:45:08.783Z,5.75
2019-03-19T23:47:38.158Z,8.95
2019-03-19T23:50:09.518Z,5.55
2019-03-19T23:52:38.731Z,5.90
2019-03-19T23:55:07.914Z,5.80
2019-03-19T23:57:38.115Z,7.05
